Flight Track Log - Related Links

Times and Time Zones

All times are in EDT time to prevent confusion due to time zone crossing. See the DLH423 flight status page for this flight to view local times or setup timezone preferences in your user account.

Time Position Orientation Groundspeed Altitude Reporting Facility
EDT Latitude Longitude Course Direction KTS MPH feet Rate Location/Type
Sat 06:20:27 PM 42.3990 -71.0600 303° West 171 197 1,900  Level FlightAware ADS-B
Sat 06:20:42 PM 42.4080 -71.0780 304° West 171 197 2,100 873 Climbing FlightAware ADS-B
Sat 06:21:22 PM 42.4270 -71.1180 303° West 234 269 2,700 933 Climbing FlightAware ADS-B
Sat 06:21:27 PM 42.4310 -71.1270 301° West 244 281 2,800 2,250 Climbing FlightAware ADS-B
Sat 06:22:02 PM 42.4560 -71.1720 307° West 255 293 4,200 2,520 Climbing FlightAware ADS-B
Sat 06:22:17 PM 42.4740 -71.1840 334° Northwest 267 307 4,900 2,486 Climbing FlightAware ADS-B
Sat 06:23:12 PM 42.5290 -71.1330 34° Northeast 295 339 7,100 2,400 Climbing FlightAware ADS-B
Sat 06:23:27 PM 42.5410 -71.1100 55° Northeast 297 342 7,700 2,000 Climbing FlightAware ADS-B
Sat 06:23:57 PM 42.5660 -71.0640 54° Northeast 315 362 8,600 1,855 Climbing FlightAware ADS-B
Sat 06:24:22 PM 42.5860 -71.0240 56° Northeast 321 369 9,400 1,754 Climbing FlightAware ADS-B
Sat 06:25:02 PM 42.6220 -70.9550 55° Northeast 344 396 10,500 1,271 Climbing FlightAware ADS-B
Sat 06:25:47 PM 42.6670 -70.8710 54° Northeast 388 447 11,200 847 Climbing FlightAware ADS-B
Sat 06:26:27 PM 42.7110 -70.7850 55° Northeast 425 489 11,700 988 Climbing FlightAware ADS-B
Sat 06:27:12 PM 42.7620 -70.6870 55° Northeast 449 517 12,600 1,482 Climbing FlightAware ADS-B
Sat 06:27:52 PM 42.8120 -70.5950 53° Northeast 458 527 13,800 1,835 Climbing FlightAware ADS-B
Sat 06:28:37 PM 42.8770 -70.4940 49° Northeast 469 540 15,200 1,694 Climbing FlightAware ADS-B
Sat 06:29:17 PM 42.9350 -70.4040 49° Northeast 479 551 16,200 1,575 Climbing FlightAware ADS-B
Sat 06:29:57 PM 42.9940 -70.3110 49° Northeast 487 560 17,300 1,553 Climbing FlightAware ADS-B
Sat 06:30:42 PM 43.0590 -70.2090 49° Northeast 497 572 18,400 1,412 Climbing FlightAware ADS-B
Sat 06:31:22 PM 43.1200 -70.1130 49° Northeast 505 581 19,300 1,271 Climbing FlightAware ADS-B
Sat 06:32:07 PM 43.1910 -70.0010 49° Northeast 520 598 20,200 1,271 Climbing FlightAware ADS-B
Sat 06:32:47 PM 43.2550 -69.9000 49° Northeast 528 608 21,100 1,275 Climbing FlightAware ADS-B
Sat 06:33:27 PM 43.3200 -69.7960 49° Northeast 538 619 21,900 1,200 Climbing FlightAware ADS-B
Sat 06:33:57 PM 43.3680 -69.7200 49° Northeast 544 626 22,500 943 Climbing FlightAware ADS-B
Sat 06:34:37 PM 43.4250 -69.6280 50° Northeast 550 633 23,000 776 Climbing FlightAware ADS-B
Sat 06:35:22 PM 43.5040 -69.5010 49° Northeast 570 656 23,600 776 Climbing FlightAware ADS-B
Sat 06:36:02 PM 43.5730 -69.3900 49° Northeast 583 671 24,100 900 Climbing FlightAware ADS-B
Sat 06:36:42 PM 43.6410 -69.2790 50° Northeast 585 673 24,800 1,059 Climbing FlightAware ADS-B
Sat 06:37:27 PM 43.7230 -69.1470 49° Northeast 599 689 25,600 988 Climbing FlightAware ADS-B
Sat 06:38:07 PM 43.7950 -69.0300 50° Northeast 603 694 26,200 1,040 Climbing FlightAware ADS-B
Sat 06:38:42 PM 43.8540 -68.9340 50° Northeast 607 699 26,900 988 Climbing FlightAware ADS-B
Sat 06:39:32 PM 43.9510 -68.7720 50° Northeast 629 724 27,600 1,067 Climbing FlightAware ADS-B
Sat 06:40:12 PM 44.0260 -68.6490 50° Northeast 628 723 28,500 1,976 Climbing FlightAware ADS-B
Sat 06:40:57 PM 44.1150 -68.5010 50° Northeast 617 710 30,400 2,329 Climbing FlightAware ADS-B
Sat 06:41:37 PM 44.1890 -68.3770 50° Northeast 610 702 31,800 1,694 Climbing FlightAware ADS-B
Sat 06:42:22 PM 44.2700 -68.2410 50° Northeast 612 704 32,800 1,200 Climbing FlightAware ADS-B
Sat 06:43:02 PM 44.3440 -68.1160 50° Northeast 608 700 33,500 900 Climbing FlightAware ADS-B
Sat 06:43:42 PM 44.4160 -67.9940 50° Northeast 615 708 34,000 353 Climbing FlightAware ADS-B
Sat 06:44:27 PM 44.4970 -67.8570 50° Northeast 625 719 34,000  Level FlightAware ADS-B
Sat 06:45:07 PM 44.5710 -67.7310 50° Northeast 629 724 34,000  Level FlightAware ADS-B
Sat 06:45:52 PM 44.6540 -67.5870 51° Northeast 627 722 34,000  Level FlightAware ADS-B
Sat 06:46:32 PM 44.7270 -67.4610 51° Northeast 623 717 34,000  Level FlightAware ADS-B
Sat 06:47:17 PM 44.8080 -67.3210 51° Northeast 621 715 34,000  Level FlightAware ADS-B
Sat 06:47:57 PM 44.8760 -67.2070 50° Northeast 624 718 34,000  Level FlightAware ADS-B
Sat 06:48:37 PM 44.9580 -67.0920 45° Northeast 632 727 34,000  Level FlightAware ADS-B
Sat 06:49:22 PM 45.0630 -66.9670 40° Northeast 632 727 34,000  Level FlightAware ADS-B
Sat 06:50:02 PM 45.1530 -66.8610 40° Northeast 635 731 34,000  Level FlightAware ADS-B
Sat 06:50:42 PM 45.2460 -66.7510 40° Northeast 638 734 34,000  Level FlightAware ADS-B
Sat 06:51:27 PM 45.3470 -66.6310 40° Northeast 638 734 34,000  Level FlightAware ADS-B
Sat 06:52:07 PM 45.4370 -66.5220 40° Northeast 639 735 34,000  Level FlightAware ADS-B
Sat 06:52:52 PM 45.5370 -66.4020 40° Northeast 637 733 34,000  Level FlightAware ADS-B
Sat 06:53:32 PM 45.6290 -66.2910 40° Northeast 637 733 34,000  Level FlightAware ADS-B
Sat 06:54:17 PM 45.7270 -66.1720 40° Northeast 634 730 34,000  Level FlightAware ADS-B
Sat 06:54:57 PM 45.8200 -66.0580 40° Northeast 635 731 34,000  Level FlightAware ADS-B
Sat 06:55:37 PM 45.9050 -65.9540 40° Northeast 636 732 34,000  Level FlightAware ADS-B
Sat 06:56:22 PM 46.0060 -65.8300 40° Northeast 636 732 34,000  Level FlightAware ADS-B
Sat 06:57:02 PM 46.0960 -65.7170 41° Northeast 633 728 34,000  Level FlightAware ADS-B
Sat 06:57:37 PM 46.1700 -65.6260 40° Northeast 632 727 34,000  Level FlightAware ADS-B
Sat 06:58:27 PM 46.2790 -65.4920 40° Northeast 632 727 34,000  Level FlightAware ADS-B
Sat 06:59:07 PM 46.3550 -65.3990 40° Northeast 632 727 34,000  Level FlightAware ADS-B
Sat 06:59:47 PM 46.4320 -65.3060 40° Northeast 632 727 34,000  Level FlightAware ADS-B
Sat 07:00:27 PM 46.5080 -65.2140 40° Northeast 632 727 34,000  Level FlightAware ADS-B
Sat 07:01:17 PM 46.6030 -65.0980 40° Northeast 632 727 34,000  Level FlightAware ADS-B
Sat 07:01:57 PM 46.6790 -65.0040 40° Northeast 632 727 34,000  Level FlightAware ADS-B
Sat 07:02:37 PM 46.7550 -64.9110 40° Northeast 632 727 34,000  Level FlightAware ADS-B
Sat 07:03:17 PM 46.8310 -64.8180 40° Northeast 632 727 34,000  Level FlightAware ADS-B
Sat 07:03:57 PM 46.9080 -64.7240 40° Northeast 632 727 34,000  Level FlightAware ADS-B
Sat 07:04:37 PM 46.9840 -64.6310 40° Northeast 632 727 34,000  Level FlightAware ADS-B
Sat 07:05:27 PM 47.0790 -64.5140 40° Northeast 632 727 34,000  Level FlightAware ADS-B
Sat 07:06:07 PM 47.1550 -64.4200 40° Northeast 632 727 34,000  Level FlightAware ADS-B
Sat 07:06:47 PM 47.2310 -64.3260 40° Northeast 632 727 34,000  Level FlightAware ADS-B
Sat 07:07:27 PM 47.3070 -64.2310 40° Northeast 632 727 34,000  Level FlightAware ADS-B
Sat 07:07:46 PM 47.5000 -63.8833 40° Northeast 630 725 34,000  Level Moncton Center
Sat 07:08:46 PM 47.6333 -63.7333 37° Northeast 630 725 34,000  Level Moncton Center
Sat 07:09:46 PM 47.7667 -63.5333 45° Northeast 630 725 34,000  Level Moncton Center
Sat 07:10:46 PM 47.8833 -63.3667 44° Northeast 630 725 34,000  Level Moncton Center
Sat 07:11:46 PM 48.0333 -63.1667 42° Northeast 630 725 34,000  Level Moncton Center
Sat 07:12:46 PM 48.1500 -63.0167 41° Northeast 630 725 34,000  Level Moncton Center
Sat 07:13:46 PM 48.2667 -62.8167 49° Northeast 630 725 34,000  Level Moncton Center
Sat 07:14:46 PM 48.4000 -62.6500 40° Northeast 630 725 34,000  Level Moncton Center
Sat 07:15:46 PM 48.5167 -62.4833 43° Northeast 630 725 34,000  Level Moncton Center
Sat 07:16:46 PM 48.6667 -62.3000 39° Northeast 630 725 34,000  Level Moncton Center
Sat 07:17:46 PM 48.7833 -62.1167 46° Northeast 630 725 34,000  Level Moncton Center
Sat 07:18:46 PM 48.9167 -61.9000 47° Northeast 630 725 34,000  Level Moncton Center
Sat 07:19:46 PM 49.0667 -61.7167 39° Northeast 650 748 34,000  Level Moncton Center
Sat 07:20:46 PM 49.1667 -61.5333 50° Northeast 620 713 34,000  Level Moncton Center
Sat 07:21:46 PM 49.3000 -61.3667 39° Northeast 630 725 34,000  Level Moncton Center
Sat 07:22:46 PM 49.4333 -61.1500 47° Northeast 630 725 34,000  Level Moncton Center
Sat 07:23:46 PM 49.5333 -60.9667 50° Northeast 630 725 34,000  Level Moncton Center
Sat 07:24:46 PM 49.6667 -60.8000 39° Northeast 630 725 34,000  Level Moncton Center
Sat 07:25:46 PM 49.8000 -60.5833 46° Northeast 630 725 34,000  Level Moncton Center
Sat 07:25:46 PM 49.8000 -60.5833 46° Northeast 640 736 34,000  Level Gander Center
Sat 07:26:46 PM 49.9167 -60.3833 48° Northeast 620 713 34,000  Level Moncton Center
Sat 07:27:46 PM 50.0500 -60.2000 41° Northeast 620 713 34,000  Level Moncton Center
Sat 07:28:46 PM 50.1833 -60.0333 39° Northeast 630 725 34,000  Level Moncton Center
Sat 07:29:46 PM 50.2833 -59.8333 52° Northeast 630 725 34,000  Level Moncton Center
Sat 07:30:46 PM 50.4333 -59.6167 43° Northeast 630 725 34,000  Level Moncton Center
Sat 07:31:46 PM 50.5333 -59.4500 47° Northeast 630 725 34,000  Level Moncton Center
Sat 07:32:46 PM 50.6667 -59.2167 48° Northeast 620 713 34,000  Level Moncton Center
Sat 07:33:46 PM 50.7500 -59.0000 59° Northeast 630 725 34,000  Level Moncton Center
Sat 07:34:46 PM 50.8667 -58.8000 47° Northeast 630 725 34,000  Level Moncton Center
Sat 07:35:46 PM 50.9833 -58.5667 51° Northeast 630 725 34,000  Level Moncton Center
Sat 07:36:46 PM 51.1000 -58.3667 47° Northeast 620 713 34,000  Level Moncton Center
Sat 07:37:46 PM 51.2000 -58.1500 54° Northeast 610 702 34,000  Level Moncton Center
Sat 07:38:46 PM 51.3000 -57.9333 54° Northeast 620 713 34,000  Level Moncton Center
Sat 07:39:46 PM 51.4167 -57.7167 49° Northeast 620 713 34,000  Level Moncton Center
Sat 07:40:46 PM 51.5167 -57.4833 55° Northeast 610 702 34,000  Level Moncton Center
Sat 07:41:46 PM 51.6167 -57.2667 53° Northeast 620 713 34,000  Level Moncton Center
Sat 07:42:46 PM 51.7333 -57.0500 49° Northeast 620 713 34,000  Level Moncton Center
Sat 07:43:46 PM 51.8333 -56.8333 53° Northeast 620 713 34,000  Level Moncton Center
Sat 07:44:43 PM 51.9333 -56.6167 53° Northeast 620 713 34,000  Level Gander Center
Sat 07:45:46 PM 52.0333 -56.3833 55° Northeast 620 713 34,000  Level Moncton Center
Sat 07:46:46 PM 52.1333 -56.1500 55° Northeast 610 702 34,000  Level Moncton Center
Sat 07:47:46 PM 52.2333 -55.9500 51° Northeast 610 702 34,000  Level Moncton Center
Sat 07:48:46 PM 52.3500 -55.7000 53° Northeast 610 702 34,000 -150 Level Moncton Center
Sat 07:49:46 PM 52.4500 -55.5000 51° Northeast 610 702 33,700 -400 Descending Moncton Center
Sat 07:50:46 PM 52.5500 -55.2833 53° Northeast 610 702 33,200 -350 Descending Moncton Center
Sat 07:51:46 PM 52.6500 -55.0333 57° Northeast 610 702 33,000 -100 Descending Moncton Center
Sat 07:52:46 PM 52.7500 -54.8167 53° Northeast 610 702 33,000  Level Moncton Center
Sat 07:53:46 PM 52.8333 -54.5833 59° Northeast 610 702 33,000  Level Moncton Center
Sat 07:53:46 PM 52.8333 -54.5833 59° Northeast 600 690 33,000  Level Gander Center
Sat 07:54:46 PM 52.9333 -54.3667 53° Northeast 600 690 33,000  Level Gander Center
Sat 07:55:46 PM 53.0333 -54.1333 54° Northeast 610 702 33,000  Level Gander Center
Sat 07:56:46 PM 53.1000 -53.8667 67° East 610 702 33,000  Level Gander Center
Sat 07:57:46 PM 53.1667 -53.6333 64° Northeast 610 702 33,000  Level Gander Center
Sat 07:58:46 PM 53.2333 -53.3667 67° East 610 702 33,000  Level Gander Center
Sat 07:59:46 PM 53.3000 -53.1000 67° East 610 702 33,000  Level Gander Center
Sat 08:00:46 PM 53.3500 -52.8333 72° East 610 702 33,000  Level Gander Center
Sat 08:01:46 PM 53.4167 -52.5667 67° East 600 690 33,000  Level Gander Center
Sat 08:02:46 PM 53.4833 -52.3000 67° East 600 690 33,000  Level Gander Center
Sat 08:03:46 PM 53.5333 -52.0333 72° East 600 690 33,000  Level Gander Center
Sat 08:04:46 PM 53.6000 -51.7667 67° East 600 690 33,000  Level Gander Center
Sat 08:05:46 PM 53.6500 -51.5000 72° East 610 702 33,000  Level Gander Center
Sat 08:06:46 PM 53.7167 -51.2333 67° East 600 690 33,000  Level Gander Center
Sat 08:07:46 PM 53.7833 -50.9833 66° East 600 690 33,000  Level Gander Center
Sat 08:08:46 PM 53.8167 -50.7167 78° East 600 690 33,000  Level Gander Center
Sat 08:09:46 PM 53.8667 -50.4500 72° East 600 690 33,000  Level Gander Center
Sat 08:10:46 PM 53.9333 -50.1833 67° East 600 690 33,000  Level Gander Center
Sat 08:11:46 PM 53.9833 -49.9000 73° East 600 690 33,000  Level Gander Center
Sat 08:12:46 PM 54.0500 -49.6333 67° East 600 690 33,000 14 Level Gander Center
Sat 08:14:00 PM 54.0935 -49.3205 77° East  Level FlightAware Approximate
Sat 08:21:00 PM 54.3163 -47.6028 77° East  Level FlightAware Approximate
Sat 08:22:00 PM 54.3461 -47.3559 78° East  Level FlightAware Approximate
Sat 08:23:00 PM 54.3750 -47.1086 79° East  Level FlightAware Approximate
Sat 08:24:00 PM 54.4024 -46.8605 79° East  Level FlightAware Approximate
Sat 08:25:00 PM 54.4293 -46.6121 79° East  Level FlightAware Approximate
Sat 08:26:00 PM 54.4556 -46.3634 80° East  Level FlightAware Approximate
Sat 08:27:00 PM 54.4815 -46.1144 80° East  Level FlightAware Approximate
Sat 08:28:00 PM 54.5068 -45.8651 80° East  Level FlightAware Approximate
Sat 08:29:00 PM 54.5330 -45.6159 79° East  Level FlightAware Approximate
Sat 08:30:00 PM 54.5595 -45.3666 80° East  Level FlightAware Approximate
Sat 08:31:00 PM 54.5855 -45.1170 80° East  Level FlightAware Approximate
Sat 08:32:00 PM 54.6110 -44.8670 80° East  Level FlightAware Approximate
Sat 08:33:00 PM 54.6359 -44.6168 80° East  Level FlightAware Approximate
Sat 08:34:00 PM 54.6604 -44.3663 80° East  Level FlightAware Approximate
Sat 08:35:00 PM 54.6843 -44.1154 81° East  Level FlightAware Approximate
Sat 08:36:00 PM 54.7077 -43.8643 81° East  Level FlightAware Approximate
Sat 08:37:00 PM 54.7306 -43.6129 81° East  Level FlightAware Approximate
Sat 08:38:00 PM 54.7530 -43.3612 81° East  Level FlightAware Approximate
Sat 08:39:00 PM 54.7748 -43.1092 81° East  Level FlightAware Approximate
Sat 08:40:00 PM 54.7962 -42.8570 82° East  Level FlightAware Approximate
Sat 08:41:00 PM 54.8170 -42.6045 82° East  Level FlightAware Approximate
Sat 08:42:00 PM 54.8373 -42.3517 82° East  Level FlightAware Approximate
Sat 08:43:00 PM 54.8570 -42.0987 82° East  Level FlightAware Approximate
Sat 08:44:00 PM 54.8763 -41.8455 82° East  Level FlightAware Approximate
Sat 08:45:00 PM 54.8950 -41.5920 83° East  Level FlightAware Approximate
Sat 08:46:00 PM 54.9131 -41.3382 83° East  Level FlightAware Approximate
Sat 08:47:00 PM 54.9308 -41.0843 83° East  Level FlightAware Approximate
Sat 08:48:00 PM 54.9479 -40.8301 83° East  Level FlightAware Approximate
Sat 08:49:00 PM 54.9645 -40.5757 83° East  Level FlightAware Approximate
Sat 08:50:00 PM 54.9805 -40.3211 84° East  Level FlightAware Approximate
Sat 08:51:00 PM 54.9961 -40.0663 84° East  Level FlightAware Approximate
Sat 08:52:00 PM 55.0076 -39.8108 86° East  Level FlightAware Approximate
Sat 08:53:00 PM 55.0175 -39.5550 86° East  Level FlightAware Approximate
Sat 08:54:00 PM 55.0268 -39.2991 86° East  Level FlightAware Approximate
Sat 08:55:00 PM 55.0355 -39.0431 86° East  Level FlightAware Approximate
Sat 08:56:00 PM 55.0438 -38.7869 87° East  Level FlightAware Approximate
Sat 08:57:00 PM 55.0515 -38.5307 87° East  Level FlightAware Approximate
Sat 08:58:00 PM 55.0586 -38.2743 87° East  Level FlightAware Approximate
Sat 08:59:00 PM 55.0653 -38.0179 87° East  Level FlightAware Approximate
Sat 09:00:00 PM 55.0713 -37.7614 88° East  Level FlightAware Approximate
Sat 09:01:00 PM 55.0769 -37.5048 88° East  Level FlightAware Approximate
Sat 09:02:00 PM 55.0821 -37.2342 88° East  Level FlightAware Approximate
Sat 09:03:00 PM 55.0868 -36.9635 88° East  Level FlightAware Approximate
Sat 09:04:00 PM 55.0908 -36.6928 88° East  Level FlightAware Approximate
Sat 09:05:00 PM 55.0943 -36.4220 89° East  Level FlightAware Approximate
Sat 09:06:00 PM 55.0971 -36.1512 89° East  Level FlightAware Approximate
Sat 09:07:00 PM 55.0994 -35.8803 89° East  Level FlightAware Approximate
Sat 09:08:00 PM 55.1010 -35.6094 89° East  Level FlightAware Approximate
Sat 09:09:00 PM 55.1021 -35.3385 90° East  Level FlightAware Approximate
Sat 09:10:00 PM 55.1025 -35.0676 90° East  Level FlightAware Approximate
Sat 09:11:00 PM 55.1024 -34.7967 90° East  Level FlightAware Approximate
Sat 09:12:00 PM 55.1016 -34.5258 90° East  Level FlightAware Approximate
Sat 09:13:00 PM 55.1003 -34.2549 90° East  Level FlightAware Approximate
Sat 09:14:00 PM 55.0983 -33.9841 91° East  Level FlightAware Approximate
Sat 09:15:00 PM 55.0958 -33.7132 91° East  Level FlightAware Approximate
Sat 09:16:00 PM 55.0926 -33.4424 91° East  Level FlightAware Approximate
Sat 09:17:00 PM 55.0889 -33.1716 91° East  Level FlightAware Approximate
Sat 09:18:00 PM 55.0845 -32.9010 91° East  Level FlightAware Approximate
Sat 09:19:00 PM 55.0796 -32.6303 92° East  Level FlightAware Approximate
Sat 09:20:00 PM 55.0740 -32.3597 92° East  Level FlightAware Approximate
Sat 09:21:00 PM 55.0678 -32.0892 92° East  Level FlightAware Approximate
Sat 09:22:00 PM 55.0611 -31.8188 92° East  Level FlightAware Approximate
Sat 09:23:00 PM 55.0537 -31.5485 93° East  Level FlightAware Approximate
Sat 09:24:00 PM 55.0458 -31.2784 93° East  Level FlightAware Approximate
Sat 09:25:00 PM 55.0373 -31.0083 93° East  Level FlightAware Approximate
Sat 09:26:00 PM 55.0281 -30.7383 93° East  Level FlightAware Approximate
Sat 09:27:00 PM 55.0183 -30.4685 93° East  Level FlightAware Approximate
Sat 09:28:00 PM 55.0080 -30.1987 94° East  Level FlightAware Approximate
Sat 09:29:00 PM 54.9959 -29.9293 96° East  Level FlightAware Approximate
Sat 09:30:00 PM 54.9802 -29.6606 96° East  Level FlightAware Approximate
Sat 09:31:00 PM 54.9638 -29.3921 96° East  Level FlightAware Approximate
Sat 09:32:00 PM 54.9469 -29.1238 96° East  Level FlightAware Approximate
Sat 09:33:00 PM 54.9293 -28.8557 96° East  Level FlightAware Approximate
Sat 09:34:00 PM 54.9112 -28.5879 97° East  Level FlightAware Approximate
Sat 09:35:00 PM 54.8925 -28.3203 97° East  Level FlightAware Approximate
Sat 09:36:00 PM 54.8732 -28.0529 97° East  Level FlightAware Approximate
Sat 09:37:00 PM 54.8533 -27.7859 97° East  Level FlightAware Approximate
Sat 09:38:00 PM 54.8328 -27.5191 97° East  Level FlightAware Approximate
Sat 09:39:00 PM 54.8117 -27.2525 98° East  Level FlightAware Approximate
Sat 09:40:00 PM 54.7901 -26.9863 98° East  Level FlightAware Approximate
Sat 09:41:00 PM 54.7678 -26.7203 98° East  Level FlightAware Approximate
Sat 09:42:00 PM 54.7450 -26.4546 98° East  Level FlightAware Approximate
Sat 09:43:00 PM 54.7216 -26.1893 99° East  Level FlightAware Approximate
Sat 09:44:00 PM 54.6977 -25.9242 99° East  Level FlightAware Approximate
Sat 09:45:00 PM 54.6731 -25.6595 99° East  Level FlightAware Approximate
Sat 09:46:00 PM 54.6480 -25.3950 99° East  Level FlightAware Approximate
Sat 09:47:00 PM 54.6223 -25.1310 99° East  Level FlightAware Approximate
Sat 09:48:00 PM 54.5960 -24.8672 100° East  Level FlightAware Approximate
Sat 09:49:00 PM 54.5692 -24.6038 100° East  Level FlightAware Approximate
Sat 09:50:00 PM 54.5418 -24.3407 100° East  Level FlightAware Approximate
Sat 09:51:00 PM 54.5138 -24.0781 100° East  Level FlightAware Approximate
Sat 09:52:00 PM 54.4852 -23.8157 101° East  Level FlightAware Approximate
Sat 09:53:00 PM 54.4561 -23.5538 101° East  Level FlightAware Approximate
Sat 09:54:00 PM 54.4264 -23.2922 101° East  Level FlightAware Approximate
Sat 09:55:00 PM 54.3961 -23.0310 101° East  Level FlightAware Approximate
Sat 09:56:00 PM 54.3653 -22.7701 101° East  Level FlightAware Approximate
Sat 09:57:00 PM 54.3339 -22.5097 102° East  Level FlightAware Approximate
Sat 09:58:00 PM 54.3020 -22.2497 102° East  Level FlightAware Approximate
Sat 09:59:00 PM 54.2695 -21.9901 102° East  Level FlightAware Approximate
Sat 10:00:00 PM 54.2365 -21.7309 102° East  Level FlightAware Approximate
Sat 10:01:00 PM 54.2029 -21.4721 102° East  Level FlightAware Approximate
Sat 10:02:00 PM 54.1687 -21.2137 103° East  Level FlightAware Approximate
Sat 10:03:00 PM 54.1340 -20.9558 103° East  Level FlightAware Approximate
Sat 10:04:00 PM 54.0987 -20.6983 103° East  Level FlightAware Approximate
Sat 10:05:00 PM 54.0629 -20.4413 103° East  Level FlightAware Approximate
Sat 10:06:00 PM 54.0266 -20.1847 103° East  Level FlightAware Approximate
Sat 10:07:00 PM 53.9957 -19.9267 96° East  Level FlightAware Approximate
Sat 10:08:00 PM 53.9799 -19.6645 96° East  Level FlightAware Approximate
Sat 10:09:00 PM 53.9635 -19.4025 96° East  Level FlightAware Approximate
Sat 10:10:00 PM 53.9465 -19.1406 96° East  Level FlightAware Approximate
Sat 10:11:00 PM 53.9290 -18.8790 96° East  Level FlightAware Approximate
Sat 10:12:00 PM 53.9109 -18.6176 97° East  Level FlightAware Approximate
Sat 10:13:00 PM 53.8923 -18.3565 97° East  Level FlightAware Approximate
Sat 10:14:00 PM 53.8730 -18.0956 97° East  Level FlightAware Approximate
Sat 10:15:00 PM 53.8532 -17.8349 97° East  Level FlightAware Approximate
Sat 10:16:00 PM 53.8329 -17.5744 97° East  Level FlightAware Approximate
Sat 10:17:00 PM 53.8120 -17.3143 98° East  Level FlightAware Approximate
Sat 10:18:00 PM 53.7905 -17.0544 98° East  Level FlightAware Approximate
Sat 10:19:00 PM 53.7684 -16.7947 98° East  Level FlightAware Approximate
Sat 10:20:00 PM 53.7458 -16.5354 98° East  Level FlightAware Approximate
Sat 10:21:00 PM 53.7227 -16.2763 98° East  Level FlightAware Approximate
Sat 10:22:00 PM 53.6990 -16.0175 99° East  Level FlightAware Approximate
Sat 10:23:00 PM 53.6747 -15.7590 99° East  Level FlightAware Approximate
Sat 10:24:00 PM 53.6498 -15.5008 99° East  Level FlightAware Approximate
Sat 10:25:00 PM 53.6245 -15.2429 99° East  Level FlightAware Approximate
Sat 10:26:00 PM 53.5984 -14.9854 100° East  Level FlightAware Approximate
Sat 10:27:00 PM 53.5706 -14.7285 100° East  Level FlightAware Approximate
Sat 10:28:00 PM 53.5422 -14.4720 100° East  Level FlightAware Approximate
Sat 10:29:00 PM 53.5133 -14.2159 101° East  Level FlightAware Approximate
Sat 10:30:00 PM 53.4849 -13.9597 100° East  Level FlightAware Approximate
Sat 10:30:22 PM 52.8970 -12.5490 100° East 553 636 34,900  Level FlightAware ADS-B
Sat 10:31:00 PM 53.4570 -13.7036 100° East  Level FlightAware Approximate
Sat 10:31:07 PM 52.8860 -12.3610 95° East 547 629 36,100  Level FlightAware ADS-B
Sat 10:32:37 PM 52.8640 -11.9850 95° East 541 623 37,000 230 Climbing FlightAware ADS-B
Sat 10:35:00 PM 52.8347 -11.3752 94° East  Level Estimated
Sat 10:35:02 PM 52.8260 -11.3930 94° East 538 619 37,000  Level FlightAware ADS-B
Sat 10:36:12 PM 52.8060 -11.1070 96° East 540 621 37,000  Level FlightAware ADS-B
Sat 10:38:00 PM 52.7811 -10.6475 95° East  Level Estimated
Sat 10:39:00 PM 52.7664 -10.3924 95° East  Level Estimated
Sat 10:39:52 PM 52.7420 -10.2250 96° East 538 619 37,000  Level FlightAware ADS-B
Sat 10:40:00 PM 52.7513 -10.1375 96° East  Level Estimated
Sat 10:41:42 PM 52.7070 -9.7770 97° East 539 620 37,000  Level FlightAware ADS-B
Sat 10:43:27 PM 52.6710 -9.3430 98° East 527 606 37,000 -484 Level FlightAware ADS-B
Sat 10:44:48 PM 52.6409 -8.9951 98° East 484 557 35,500 -909 Descending FlightAware UK
Sat 10:45:06 PM 52.6351 -8.9239 98° East 488 562 35,500 2,647 Level FlightAware UK
Sat 10:45:22 PM 52.6320 -8.8860 98° East 528 608 37,000 -333 Climbing FlightAware ADS-B
Sat 10:45:24 PM 52.6289 -8.8522 98° East 486 559 35,400 -4,500 Descending FlightAware UK
Sat 10:45:42 PM 52.6225 -8.7802 98° East 482 555 35,500 3,429 Climbing FlightAware UK
Sat 10:45:52 PM 52.6220 -8.7730 98° East 526 605 37,000  Climbing FlightAware ADS-B
Sat 10:46:00 PM 52.6162 -8.7087 98° East 484 557 35,500 -3,000 Descending FlightAware UK
Sat 10:46:24 PM 52.6077 -8.6135 98° East 484 557 35,400  Descending FlightAware UK
Sat 10:46:42 PM 52.6012 -8.5417 98° East 486 559 35,500 4,174 Climbing FlightAware UK
Sat 10:46:47 PM 52.6010 -8.5460 98° East 529 609 37,000  Climbing FlightAware ADS-B
Sat 10:47:06 PM 52.5924 -8.4466 98° East 484 557 35,500 -2,432 Descending FlightAware UK
Sat 10:47:24 PM 52.5858 -8.3754 99° East 482 555 35,500 4,286 Level FlightAware UK
Sat 10:47:27 PM 52.5870 -8.3880 99° East 527 606 37,000  Climbing FlightAware ADS-B
Sat 10:47:42 PM 52.5791 -8.3043 99° East 482 555 35,500 -2,727 Descending FlightAware UK
Sat 10:48:00 PM 52.5725 -8.2332 99° East 482 555 35,500 3,600 Level FlightAware UK
Sat 10:48:07 PM 52.5720 -8.2280 99° East 529 609 37,000  Climbing FlightAware ADS-B
Sat 10:48:24 PM 52.5635 -8.1373 99° East 482 555 35,500 -2,571 Descending FlightAware UK
Sat 10:48:42 PM 52.5570 -8.0665 99° East 488 562 35,500 3,214 Level FlightAware UK
Sat 10:48:52 PM 52.5550 -8.0510 99° East 531 611 37,000  Climbing FlightAware ADS-B
Sat 10:49:12 PM 52.5456 -7.9469 99° East 486 559 35,500 -2,368 Descending FlightAware UK
Sat 10:49:30 PM 52.5384 -7.8749 99° East 486 559 35,500 4,500 Level FlightAware UK
Sat 10:49:32 PM 52.5400 -7.8950 99° East 524 603 37,000  Climbing FlightAware ADS-B
Sat 10:49:48 PM 52.5314 -7.8041 99° East 480 552 35,500 -2,250 Descending FlightAware UK
Sat 10:50:12 PM 52.5222 -7.7104 99° East 484 557 35,500 3,103 Level FlightAware UK
Sat 10:50:17 PM 52.5220 -7.7160 99° East 522 601 37,000  Climbing FlightAware ADS-B
Sat 10:50:36 PM 52.5130 -7.6175 99° East 482 555 35,500 -2,432 Descending FlightAware UK
Sat 10:50:54 PM 52.5061 -7.5480 99° East 480 552 35,500 4,286 Level FlightAware UK
Sat 10:50:57 PM 52.5080 -7.5630 99° East 518 596 37,000  Climbing FlightAware ADS-B
Sat 10:51:12 PM 52.4993 -7.4787 99° East 476 548 35,500 -2,727 Descending FlightAware UK
Sat 10:51:30 PM 52.4923 -7.4090 99° East 484 557 35,500 3,600 Level FlightAware UK
Sat 10:51:37 PM 52.4920 -7.4070 99° East 521 600 37,000  Climbing FlightAware ADS-B
Sat 10:51:54 PM 52.4828 -7.3157 99° East 482 555 35,500 -2,571 Descending FlightAware UK
Sat 10:52:12 PM 52.4757 -7.2457 99° East 480 552 35,500 3,214 Level FlightAware UK
Sat 10:52:22 PM 52.4740 -7.2300 99° East 519 597 37,000  Climbing FlightAware ADS-B
Sat 10:52:42 PM 52.4637 -7.1293 99° East 482 555 35,500  Descending FlightAware UK
Sat 10:53:02 PM 52.4580 -7.0770 99° East 521 600 37,000  Climbing FlightAware ADS-B
Sat 10:53:18 PM 52.4490 -6.9889 99° East 484 557 35,500 -2,250 Descending FlightAware UK
Sat 10:53:42 PM 52.4393 -6.8968 100° East 480 552 35,500 3,103 Level FlightAware UK
Sat 10:53:47 PM 52.4390 -6.9000 100° East 516 594 37,000  Climbing FlightAware ADS-B
Sat 10:54:06 PM 52.4293 -6.8037 100° East 476 548 35,500 -2,432 Descending FlightAware UK
Sat 10:54:24 PM 52.4218 -6.7348 100° East 476 548 35,500 4,286 Level FlightAware UK
Sat 10:54:27 PM 52.4230 -6.7490 100° East 513 590 37,000  Climbing FlightAware ADS-B
Sat 10:54:42 PM 52.4145 -6.6660 100° East 476 548 35,500 -2,308 Descending FlightAware UK
Sat 10:55:06 PM 52.4046 -6.5734 100° East 474 545 35,500 3,600 Level FlightAware UK
Sat 10:55:07 PM 52.4070 -6.5950 100° East 516 594 37,000  Climbing FlightAware ADS-B
Sat 10:55:24 PM 52.3972 -6.5053 100° East 480 552 35,500 -2,571 Descending FlightAware UK
Sat 10:55:42 PM 52.3897 -6.4360 100° East 482 555 35,500 3,214 Level FlightAware UK
Sat 10:55:52 PM 52.3860 -6.4110 100° East 517 595 37,000  Climbing FlightAware ADS-B
Sat 10:56:07 PM 52.3794 -6.3423 100° East 478 550 35,500 -2,813 Descending FlightAware UK
Sat 10:56:24 PM 52.3723 -6.2740 100° East 480 552 35,500 3,600 Level FlightAware UK
Sat 10:56:32 PM 52.3710 -6.2610 100° East 513 590 37,000  Climbing FlightAware ADS-B
Sat 10:56:54 PM 52.3607 -6.1593 100° East 474 545 35,500 -2,250 Descending FlightAware UK
Sat 10:57:12 PM 52.3537 -6.0908 99° East 478 550 35,500 5,000 Level FlightAware UK
Sat 10:57:12 PM 52.3560 -6.1110 99° East 514 592 37,000  Climbing FlightAware ADS-B
Sat 10:57:43 PM 52.3418 -5.9757 99° East 476 548 35,500  Descending FlightAware UK
Sat 10:57:57 PM 52.3380 -5.9370 99° East 516 594 37,000  Climbing FlightAware ADS-B
Sat 10:58:13 PM 52.3299 -5.8610 99° East 476 548 35,500 -2,647 Descending FlightAware UK
Sat 10:58:31 PM 52.3224 -5.7904 100° East 480 552 35,500  Level FlightAware UK
Sat 10:58:55 PM 52.3126 -5.6992 100° East 480 552 35,500 2,500 Level FlightAware UK
Sat 10:59:07 PM 52.3090 -5.6640 100° East 513 590 37,000  Climbing FlightAware ADS-B
Sat 10:59:25 PM 52.3001 -5.5840 100° East 476 548 35,500 -2,143 Descending FlightAware UK
Sat 10:59:49 PM 52.2903 -5.4946 100° East 474 545 35,500  Level FlightAware UK
Sat 11:00:13 PM 52.2803 -5.4032 100° East 480 552 35,500 2,368 Level FlightAware UK
Sat 11:00:27 PM 52.2760 -5.3640 100° East 508 585 37,000  Climbing FlightAware ADS-B
Sat 11:00:49 PM 52.2655 -5.2674 100° East 480 552 35,500 -2,250 Descending FlightAware UK
Sat 11:01:07 PM 52.2580 -5.2012 100° East 476 548 35,500  Level FlightAware UK
Sat 11:01:25 PM 52.2506 -5.1348 100° East 474 545 35,500 4,500 Level FlightAware UK
Sat 11:01:27 PM 52.2510 -5.1390 100° East 498 573 37,000  Climbing FlightAware ADS-B
Sat 11:01:43 PM 52.2431 -5.0672 100° East 478 550 35,500 -2,647 Descending FlightAware UK
Sat 11:02:01 PM 52.2358 -5.0019 100° East 478 550 35,500 3,750 Level FlightAware UK
Sat 11:02:07 PM 52.2340 -4.9880 100° East 499 574 37,000  Climbing FlightAware ADS-B
Sat 11:02:25 PM 52.2253 -4.9123 100° East 474 545 35,500 -2,500 Descending FlightAware UK
Sat 11:02:43 PM 52.2177 -4.8459 101° East 478 550 35,500 3,333 Level FlightAware UK
Sat 11:02:52 PM 52.2150 -4.8260 101° East 497 572 37,000  Climbing FlightAware ADS-B
Sat 11:03:07 PM 52.2076 -4.7568 101° East 476 548 35,500 -2,727 Descending FlightAware UK
Sat 11:03:25 PM 52.2001 -4.6913 101° East 476 548 35,500 3,600 Level FlightAware UK
Sat 11:03:32 PM 52.1980 -4.6760 101° East 496 571 37,000  Climbing FlightAware ADS-B
Sat 11:03:55 PM 52.1870 -4.5806 101° East 478 550 35,500 -2,195 Descending FlightAware UK
Sat 11:04:13 PM 52.1792 -4.5143 101° East 476 548 35,500 4,091 Level FlightAware UK
Sat 11:04:17 PM 52.1780 -4.5045 101° East 499 574 37,000  Climbing FlightAware ADS-B
Sat 11:04:37 PM 52.1688 -4.4259 101° East 478 550 35,500  Descending FlightAware UK
Sat 11:04:48 PM 52.1646 -4.3917 101° East 498 573 37,000  Climbing FlightAware ADS-B
Sat 11:05:07 PM 52.1556 -4.3157 101° East 474 545 35,500  Descending FlightAware UK
Sat 11:05:24 PM 52.1488 -4.2587 101° East 498 573 37,000  Climbing FlightAware ADS-B
Sat 11:05:43 PM 52.1398 -4.1829 101° East 478 550 35,500 -2,432 Descending FlightAware UK
Sat 11:06:01 PM 52.1318 -4.1176 101° East 476 548 35,500 2,647 Level FlightAware UK
Sat 11:06:17 PM 52.1260 -4.0730 101° East 498 573 37,000  Climbing FlightAware ADS-B
Sat 11:06:19 PM 52.1236 -4.0508 101° East 474 545 35,500  Descending FlightAware UK
Sat 11:06:37 PM 52.1160 -3.9899 101° East 499 574 37,000  Climbing FlightAware ADS-B
Sat 11:07:01 PM 52.1048 -3.8976 101° East 472 543 35,500  Descending FlightAware UK
Sat 11:07:08 PM 52.1023 -3.8777 101° East 495 570 37,000  Climbing FlightAware ADS-B
Sat 11:07:25 PM 52.0937 -3.8086 101° East 472 543 35,500  Descending FlightAware UK
Sat 11:07:38 PM 52.0886 -3.7675 101° East 499 574 37,000  Climbing FlightAware ADS-B
Sat 11:07:55 PM 52.0803 -3.6998 101° East 474 545 35,500  Descending FlightAware UK
Sat 11:08:08 PM 52.0747 -3.6566 101° East 502 578 37,000  Climbing FlightAware ADS-B
Sat 11:08:25 PM 52.0664 -3.5889 101° East 478 550 35,500  Descending FlightAware UK
Sat 11:08:38 PM 52.0607 -3.5455 101° East 498 573 37,000  Climbing FlightAware ADS-B
Sat 11:08:55 PM 52.0523 -3.4789 101° East 476 548 35,500  Descending FlightAware UK
Sat 11:09:09 PM 52.0467 -3.4353 101° East 491 565 37,000  Climbing FlightAware ADS-B
Sat 11:09:26 PM 52.0384 -3.3703 101° East 468 539 35,500  Descending FlightAware UK
Sat 11:09:40 PM 52.0325 -3.3243 101° East 498 573 37,000  Climbing FlightAware ADS-B
Sat 11:09:56 PM 52.0243 -3.2610 101° East 474 545 35,500  Descending FlightAware UK
Sat 11:10:13 PM 52.0169 -3.2036 101° East 503 579 37,000  Climbing FlightAware ADS-B
Sat 11:10:32 PM 52.0073 -3.1285 101° East 478 550 35,500 -2,432 Descending FlightAware UK
Sat 11:10:50 PM 51.9985 -3.0624 102° East 476 548 35,500 2,903 Level FlightAware UK
Sat 11:11:03 PM 51.9927 -3.0187 102° East 501 577 37,000  Climbing FlightAware ADS-B
Sat 11:11:20 PM 51.9839 -2.9517 102° East 476 548 35,500  Descending FlightAware UK
Sat 11:11:33 PM 51.9780 -2.9074 102° East 502 578 37,000  Climbing FlightAware ADS-B
Sat 11:11:50 PM 51.9695 -2.8425 102° East 476 548 35,500  Descending FlightAware UK
Sat 11:12:03 PM 51.9635 -2.7978 102° East 499 574 37,000  Climbing FlightAware ADS-B
Sat 11:12:20 PM 51.9549 -2.7329 102° East 472 543 35,500  Descending FlightAware UK
Sat 11:12:33 PM 51.9487 -2.6877 102° East 499 574 37,000  Climbing FlightAware ADS-B
Sat 11:13:02 PM 51.9343 -2.5792 102° East 472 543 35,500  Descending FlightAware UK
Sat 11:13:04 PM 51.9338 -2.5775 102° East 503 579 37,000  Climbing FlightAware ADS-B
Sat 11:13:20 PM 51.9252 -2.5128 102° East 476 548 35,500  Descending FlightAware UK
Sat 11:13:34 PM 51.9187 -2.4665 102° East 501 577 37,000  Climbing FlightAware ADS-B
Sat 11:13:50 PM 51.9101 -2.4031 102° East 476 548 35,500  Descending FlightAware UK
Sat 11:14:04 PM 51.9036 -2.3563 102° East 498 573 37,000  Climbing FlightAware ADS-B
Sat 11:14:20 PM 51.8952 -2.2947 102° East 474 545 35,500  Descending FlightAware UK
Sat 11:14:35 PM 51.8882 -2.2454 102° East 497 572 37,000  Climbing FlightAware ADS-B
Sat 11:14:50 PM 51.8800 -2.1856 102° East 476 548 35,500  Descending FlightAware UK
Sat 11:15:06 PM 51.8730 -2.1352 102° East 491 565 37,000  Climbing FlightAware ADS-B
Sat 11:15:32 PM 51.8590 -2.0350 102° East 474 545 35,500  Descending FlightAware UK
Sat 11:15:36 PM 51.8578 -2.0271 102° East 492 566 37,000  Climbing FlightAware ADS-B
Sat 11:15:56 PM 51.8470 -1.9499 102° East 474 545 35,500  Descending FlightAware UK
Sat 11:16:06 PM 51.8423 -1.9170 102° East 491 565 37,000  Climbing FlightAware ADS-B
Sat 11:16:26 PM 51.8317 -1.8422 102° East 472 543 35,500  Descending FlightAware UK
Sat 11:16:39 PM 51.8257 -1.8007 102° East 490 564 37,000  Climbing FlightAware ADS-B
Sat 11:16:56 PM 51.8163 -1.7348 102° East 476 548 35,500  Descending FlightAware UK
Sat 11:17:10 PM 51.8102 -1.6927 102° East 489 563 37,000  Climbing FlightAware ADS-B
Sat 11:17:33 PM 51.7979 -1.6065 102° East 474 545 35,500  Descending FlightAware UK
Sat 11:17:40 PM 51.7949 -1.5863 102° East 486 559 37,000  Climbing FlightAware ADS-B
Sat 11:18:02 PM 51.7827 -1.5017 102° East 472 543 35,500  Descending FlightAware UK
Sat 11:18:10 PM 51.7794 -1.4804 102° East 486 559 37,000  Climbing FlightAware ADS-B
Sat 11:18:27 PM 51.7702 -1.4168 102° East 472 543 35,500  Descending FlightAware UK
Sat 11:18:40 PM 51.7638 -1.3737 102° East 488 562 37,000  Climbing FlightAware ADS-B
Sat 11:18:57 PM 51.7545 -1.3096 102° East 476 548 35,500  Descending FlightAware UK
Sat 11:19:10 PM 51.7480 -1.2663 102° East 488 562 37,000  Climbing FlightAware ADS-B
Sat 11:19:33 PM 51.7358 -1.1838 102° East 472 543 35,500  Descending FlightAware UK
Sat 11:19:41 PM 51.7320 -1.1588 102° East 490 564 37,000  Climbing FlightAware ADS-B
Sat 11:19:57 PM 51.7232 -1.0988 102° East 476 548 35,500  Descending FlightAware UK
Sat 11:20:11 PM 51.7161 -1.0522 102° East 490 564 37,000  Climbing FlightAware ADS-B
Sat 11:20:27 PM 51.7072 -0.9918 102° East 474 545 35,500  Descending FlightAware UK
Sat 11:20:42 PM 51.6998 -0.9440 102° East 491 565 37,000  Climbing FlightAware ADS-B
Sat 11:20:57 PM 51.6909 -0.8858 102° East 474 545 35,500  Descending FlightAware UK
Sat 11:21:12 PM 51.6836 -0.8370 102° East 493 567 37,000  Climbing FlightAware ADS-B
Sat 11:21:27 PM 51.6748 -0.7784 102° East 474 545 35,500  Descending FlightAware UK
Sat 11:21:42 PM 51.6673 -0.7297 102° East 493 567 37,000  Climbing FlightAware ADS-B
Sat 11:22:03 PM 51.6549 -0.6497 102° East 474 545 35,500  Descending FlightAware UK
Sat 11:22:12 PM 51.6505 -0.6208 102° East 495 570 37,000  Climbing FlightAware ADS-B
Sat 11:22:27 PM 51.6420 -0.5657 102° East 476 548 35,500  Descending FlightAware UK
Sat 11:22:43 PM 51.6338 -0.5128 102° East 496 571 37,000  Climbing FlightAware ADS-B
Sat 11:23:03 PM 51.6219 -0.4365 102° East 478 550 35,500  Descending FlightAware UK
Sat 11:23:13 PM 51.6171 -0.4050 102° East 493 567 37,000  Climbing FlightAware ADS-B
Sat 11:23:33 PM 51.6051 -0.3295 102° East 476 548 35,500  Descending FlightAware UK
Sat 11:23:43 PM 51.6002 -0.2973 102° East 493 567 37,000  Climbing FlightAware ADS-B
Sat 11:24:03 PM 51.5886 -0.2240 102° East 476 548 35,500  Descending FlightAware UK
Sat 11:24:14 PM 51.5832 -0.1897 102° East 492 566 37,000  Climbing FlightAware ADS-B
Sat 11:24:33 PM 51.5719 -0.1186 102° East 476 548 35,500  Descending FlightAware UK
Sat 11:24:44 PM 51.5662 -0.0825 102° East 490 564 37,000  Climbing FlightAware ADS-B
Sat 11:25:03 PM 51.5551 -0.0131 102° East 476 548 35,500  Descending FlightAware UK
Sat 11:25:14 PM 51.5494 0.0230 102° East 488 562 37,000  Climbing FlightAware ADS-B
Sat 11:25:39 PM 51.5348 0.1140 102° East 476 548 35,500  Descending FlightAware UK
Sat 11:25:45 PM 51.5325 0.1280 102° East 486 559 37,000  Climbing FlightAware ADS-B
Sat 11:26:09 PM 51.5182 0.2166 102° East 476 548 35,500  Descending FlightAware UK
Sat 11:26:15 PM 51.5156 0.2325 102° East 483 556 37,000  Climbing FlightAware ADS-B
Sat 11:26:33 PM 51.5046 0.3004 102° East 474 545 35,500  Descending FlightAware UK
Sat 11:26:46 PM 51.4976 0.3428 102° East 484 557 37,000  Climbing FlightAware ADS-B
Sat 11:27:03 PM 51.4876 0.4041 102° East 476 548 35,500  Descending FlightAware UK
Sat 11:27:17 PM 51.4804 0.4479 102° East 484 557 37,000  Climbing FlightAware ADS-B
Sat 11:27:33 PM 51.4704 0.5085 102° East 476 548 35,500  Descending FlightAware UK
Sat 11:27:47 PM 51.4632 0.5520 102° East 484 557 37,000  Climbing FlightAware ADS-B
Sat 11:28:03 PM 51.4532 0.6122 102° East 476 548 35,500  Descending FlightAware UK
Sat 11:28:17 PM 51.4458 0.6574 102° East 486 559 37,000 -200 Climbing FlightAware ADS-B
Sat 11:28:33 PM 51.4360 0.7163 102° East 478 550 35,400  Descending FlightAware UK
Sat 11:28:48 PM 51.4284 0.7617 102° East 482 555 37,000 2,087 Climbing FlightAware ADS-B
Sat 11:29:19 PM 51.4104 0.8687 105° East 484 557 37,000 -1,765 Level FlightAware ADS-B
Sat 11:29:39 PM 51.3977 0.9436 105° East 476 548 35,500  Descending FlightAware UK
Sat 11:29:49 PM 51.3927 0.9735 105° East 483 556 37,000  Climbing FlightAware ADS-B
Sat 11:30:10 PM 51.3800 1.0481 105° East 476 548 35,500  Descending FlightAware UK
Sat 11:30:19 PM 51.3751 1.0773 105° East 483 556 37,000  Climbing FlightAware ADS-B
Sat 11:30:34 PM 51.3659 1.1306 105° East 476 548 35,500  Descending FlightAware UK
Sat 11:30:50 PM 51.3571 1.1823 105° East 484 557 37,000  Climbing FlightAware ADS-B
Sat 11:31:10 PM 51.3448 1.2544 105° East 476 548 35,500  Descending FlightAware UK
Sat 11:31:20 PM 51.3396 1.2861 105° East 480 552 37,000  Climbing FlightAware ADS-B
Sat 11:31:40 PM 51.3277 1.3581 105° East 474 545 35,500  Descending FlightAware UK
Sat 11:31:50 PM 51.3226 1.3898 105° East 483 556 37,000  Climbing FlightAware ADS-B
Sat 11:32:10 PM 51.3109 1.4603 105° East 476 548 35,500  Descending FlightAware UK
Sat 11:32:24 PM 51.3032 1.5063 105° East 482 555 37,000  Climbing FlightAware ADS-B
Sat 11:32:40 PM 51.2936 1.5639 105° East 476 548 35,500  Descending FlightAware UK
Sat 11:32:56 PM 51.2850 1.6153 105° East 482 555 37,000  Climbing FlightAware ADS-B
Sat 11:33:15 PM 51.2732 1.6853 105° East 478 550 35,500  Descending FlightAware UK
Sat 11:33:26 PM 51.2675 1.7191 105° East 484 557 37,000 2,143 Climbing FlightAware ADS-B
Sat 11:33:57 PM 51.2496 1.8250 105° East 481 554 37,000 -1,800 Level FlightAware ADS-B
Sat 11:34:16 PM 51.2382 1.8923 105° East 474 545 35,500  Descending FlightAware UK
Sat 11:34:27 PM 51.2320 1.9281 105° East 481 554 37,000  Climbing FlightAware ADS-B
Sat 11:34:46 PM 51.2205 1.9950 105° East 476 548 35,500  Descending FlightAware UK
Sat 11:34:58 PM 51.2142 2.0322 105° East 480 552 37,000  Climbing FlightAware ADS-B
Sat 11:35:16 PM 51.2030 2.0971 105° East 476 548 35,500  Descending FlightAware UK
Sat 11:35:28 PM 51.1964 2.1355 105° East 478 550 37,000  Climbing FlightAware ADS-B
Sat 11:35:52 PM 51.1819 2.2191 105° East 476 548 35,500  Descending FlightAware UK
Sat 11:35:59 PM 51.1785 2.2388 105° East 481 554 37,000  Climbing FlightAware ADS-B
Sat 11:36:16 PM 51.1676 2.3012 105° East 476 548 35,500  Descending FlightAware UK
Sat 11:36:29 PM 51.1605 2.3420 105° East 483 556 37,000  Climbing FlightAware ADS-B
Sat 11:36:46 PM 51.1497 2.4033 105° East 478 550 35,500  Descending FlightAware UK
Sat 11:36:59 PM 51.1424 2.4455 105° East 483 556 37,000  Climbing FlightAware ADS-B
Sat 11:37:22 PM 51.1279 2.5270 105° East 478 550 35,500  Descending FlightAware UK
Sat 11:37:30 PM 51.1238 2.5508 105° East 482 555 37,000  Climbing FlightAware ADS-B
Sat 11:37:46 PM 51.1133 2.6088 105° East 478 550 35,500  Descending FlightAware UK
Sat 11:38:01 PM 51.1054 2.6542 105° East 481 554 37,000  Climbing FlightAware ADS-B
Sat 11:38:16 PM 51.0952 2.7110 105° East 474 545 35,500  Descending FlightAware UK
Sat 11:38:31 PM 51.0868 2.7585 105° East 483 556 37,000  Climbing FlightAware ADS-B
Sat 11:38:46 PM 51.0771 2.8137 105° East 478 550 35,500 -2,647 Descending FlightAware UK
Sat 11:39:05 PM 51.0659 2.8756 106° East 476 548 35,500 2,903 Level FlightAware UK
Sat 11:39:17 PM 51.0590 2.9110 106° East 483 556 37,000  Climbing FlightAware ADS-B
Sat 11:39:40 PM 51.0438 2.9967 106° East 478 550 35,500  Descending FlightAware UK
Sat 11:39:57 PM 51.0360 3.0420 106° East 486 559 37,000  Climbing FlightAware ADS-B
Sat 11:39:58 PM 51.0322 3.0587 106° East 482 555 35,500 -4,500 Descending FlightAware UK
Sat 11:40:17 PM 51.0209 3.1209 106° East 480 552 35,500  Level FlightAware UK
Sat 11:40:35 PM 51.0098 3.1823 106° East 478 550 35,500 4,500 Level FlightAware UK
Sat 11:40:37 PM 51.0100 3.1810 106° East 482 555 37,000  Climbing FlightAware ADS-B
Sat 11:40:53 PM 50.9987 3.2435 106° East 482 555 35,500 -2,647 Descending FlightAware UK
Sat 11:41:11 PM 50.9877 3.3046 106° East 478 550 35,500 3,103 Level FlightAware UK
Sat 11:41:22 PM 50.9820 3.3320 106° East 477 549 37,000  Climbing FlightAware ADS-B
Sat 11:41:41 PM 50.9691 3.4045 106° East 474 545 35,500 -2,500 Descending FlightAware UK
Sat 11:41:58 PM 50.9582 3.4638 106° East 476 548 35,500 4,286 Level FlightAware UK
Sat 11:42:02 PM 50.9570 3.4670 106° East 476 548 37,000  Climbing FlightAware ADS-B
Sat 11:42:23 PM 50.9430 3.5442 106° East 478 550 35,500 -2,308 Descending FlightAware UK
Sat 11:42:41 PM 50.9316 3.6041 107° East 478 550 35,500 3,750 Level FlightAware UK
Sat 11:42:47 PM 50.9290 3.6170 107° East 474 545 37,000  Climbing FlightAware ADS-B
Sat 11:43:05 PM 50.9166 3.6845 107° East 474 545 35,500 -2,500 Descending FlightAware UK
Sat 11:43:23 PM 50.9054 3.7435 107° East 476 548 35,500 4,091 Level FlightAware UK
Sat 11:43:27 PM 50.9050 3.7480 107° East 477 549 37,000  Climbing FlightAware ADS-B
Sat 11:43:47 PM 50.8902 3.8234 107° East 478 550 35,500 -2,368 Descending FlightAware UK
Sat 11:44:05 PM 50.8787 3.8835 107° East 480 552 35,500 3,600 Level FlightAware UK
Sat 11:44:12 PM 50.8760 3.8970 107° East 480 552 37,000  Climbing FlightAware ADS-B
Sat 11:44:29 PM 50.8635 3.9651 107° East 480 552 35,500 -2,571 Descending FlightAware UK
Sat 11:44:47 PM 50.8520 4.0259 107° East 480 552 35,500 3,913 Level FlightAware UK
Sat 11:44:52 PM 50.8500 4.0350 107° East 477 549 37,000  Climbing FlightAware ADS-B
Sat 11:45:17 PM 50.8325 4.1259 107° East 478 550 35,500  Descending FlightAware UK
Sat 11:45:32 PM 50.8250 4.1660 107° East 477 549 37,000  Climbing FlightAware ADS-B
Sat 11:45:35 PM 50.8209 4.1858 107° East 478 550 35,500 -6,000 Descending FlightAware UK
Sat 11:45:47 PM 50.8132 4.2257 107° East 476 548 35,500  Level FlightAware UK
Sat 11:46:05 PM 50.8015 4.2855 107° East 480 552 35,500 3,000 Level FlightAware UK
Sat 11:46:17 PM 50.7960 4.3160 107° East 474 545 37,000  Climbing FlightAware ADS-B
Sat 11:46:35 PM 50.7823 4.3859 107° East 474 545 35,500 -2,500 Descending FlightAware UK
Sat 11:46:53 PM 50.7708 4.4456 107° East 478 550 35,500 4,091 Level FlightAware UK
Sat 11:46:57 PM 50.7700 4.4460 107° East 476 548 37,000  Climbing FlightAware ADS-B
Sat 11:47:29 PM 50.7472 4.5646 107° East 476 548 35,500  Descending FlightAware UK
Sat 11:47:37 PM 50.7450 4.5770 107° East 475 547 37,000  Climbing FlightAware ADS-B
Sat 11:47:53 PM 50.7318 4.6441 107° East 478 550 35,500 -2,647 Descending FlightAware UK
Sat 11:48:11 PM 50.7202 4.7037 107° East 478 550 35,500 3,103 Level FlightAware UK
Sat 11:48:22 PM 50.7140 4.7310 107° East 475 547 37,000  Climbing FlightAware ADS-B
Sat 11:48:41 PM 50.7005 4.8028 107° East 1 1 35,500  Descending FlightAware UK
Sat 11:49:02 PM 50.6880 4.8630 107° East 475 547 37,000 909 Climbing FlightAware ADS-B
Sat 11:49:47 PM 50.6600 5.0010 108° East 472 543 36,500 -1,129 Descending FlightAware ADS-B
Sat 11:50:27 PM 50.6330 5.1340 108° East 459 528 35,400 -1,725 Descending FlightAware ADS-B
Sat 11:51:07 PM 50.6060 5.2660 108° East 461 531 34,200 -1,976 Descending FlightAware ADS-B
Sat 11:51:52 PM 50.5770 5.4090 108° East 474 545 32,600 -2,000 Descending FlightAware ADS-B
Sat 11:52:37 PM 50.5470 5.5550 108° East 472 543 31,200 -1,906 Descending FlightAware ADS-B
Sat 11:53:17 PM 50.5200 5.6830 108° East 474 545 29,900 -1,950 Descending FlightAware ADS-B
Sat 11:53:57 PM 50.4910 5.8200 108° East 472 543 28,600 -1,835 Descending FlightAware ADS-B
Sat 11:54:42 PM 50.4620 5.9620 108° East 467 537 27,300 -1,553 Descending FlightAware ADS-B
Sat 11:55:22 PM 50.4350 6.0860 109° East 461 531 26,400 -1,200 Descending FlightAware ADS-B
Sat 11:56:02 PM 50.4100 6.2160 107° East 455 524 25,700 -1,040 Descending FlightAware ADS-B
Sat 11:56:37 PM 50.3900 6.3200 107° East 452 520 25,100 -706 Descending FlightAware ADS-B
Sat 11:57:27 PM 50.3580 6.4780 108° East 450 518 24,700 -1,389 Descending FlightAware ADS-B
Sat 11:58:12 PM 50.3310 6.6170 107° East 443 510 22,900 -2,329 Descending FlightAware ADS-B
Sat 11:58:52 PM 50.3070 6.7370 107° East 432 497 21,400 -2,325 Descending FlightAware ADS-B
Sat 11:59:32 PM 50.2840 6.8480 108° East 423 487 19,800 -2,400 Descending FlightAware ADS-B
Sun 12:00:07 AM 50.2630 6.9520 107° East 410 472 18,400 -2,337 Descending FlightAware ADS-B
Sun 12:01:07 AM 50.2320 7.1040 108° East 403 464 16,100 -2,286 Descending FlightAware ADS-B
Sun 12:01:52 AM 50.2040 7.2390 108° East 389 448 14,400 -2,229 Descending FlightAware ADS-B
Sun 12:02:52 AM 50.1710 7.3980 108° East 378 435 12,200 -2,040 Descending FlightAware ADS-B
Sun 12:03:32 AM 50.1490 7.5030 108° East 362 417 11,000 -900 Descending FlightAware ADS-B
Sun 12:04:12 AM 50.1290 7.5980 108° East 317 365 11,000  Level FlightAware ADS-B
Sun 12:04:57 AM 50.1110 7.6870 107° East 279 321 11,000  Level FlightAware ADS-B
Sun 12:05:37 AM 50.0970 7.7600 107° East 246 283 11,000  Level FlightAware ADS-B
Sun 12:06:22 AM 50.0820 7.8360 107° East 247 284 11,000  Level FlightAware ADS-B
Sun 12:06:32 AM 50.0800 7.8540 100° East 249 287 11,000  Level FlightAware ADS-B
Sun 12:06:47 AM 50.0840 7.8800 77° East 250 288 11,000  Level FlightAware ADS-B
Sun 12:07:32 AM 50.1020 7.9560 70° East 247 284 11,000  Level FlightAware ADS-B
Sun 12:08:12 AM 50.1190 8.0240 69° East 248 285 11,000  Level FlightAware ADS-B
Sun 12:08:52 AM 50.1350 8.0910 70° East 249 287 11,000 -92 Level FlightAware ADS-B
Sun 12:09:17 AM 50.1430 8.1350 74° East 252 290 10,900 -533 Descending FlightAware ADS-B
Sun 12:09:37 AM 50.1350 8.1670 111° Southeast 248 285 10,600 -1,029 Descending FlightAware ADS-B
Sun 12:09:52 AM 50.1210 8.1820 146° Southeast 249 287 10,300 -800 Descending FlightAware ADS-B
Sun 12:10:22 AM 50.0880 8.1970 164° South 239 275 10,000 -327 Descending FlightAware ADS-B
Sun 12:10:47 AM 50.0620 8.1800 203° Southwest 252 290 10,000  Level FlightAware ADS-B
Sun 12:10:57 AM 50.0560 8.1640 240° Southwest 261 300 10,000 -240 Level FlightAware ADS-B
Sun 12:11:12 AM 50.0500 8.1380 250° West 259 298 9,900 -800 Descending FlightAware ADS-B
Sun 12:11:42 AM 50.0390 8.0840 252° West 256 295 9,400 -1,000 Descending FlightAware ADS-B
Sun 12:12:12 AM 50.0300 8.0320 255° West 256 295 8,900 -982 Descending FlightAware ADS-B
Sun 12:12:37 AM 50.0210 7.9870 253° West 252 290 8,500 -982 Descending FlightAware ADS-B
Sun 12:13:07 AM 50.0110 7.9340 254° West 252 290 8,000 -1,067 Descending FlightAware ADS-B
Sun 12:13:22 AM 50.0020 7.9110 239° Southwest 248 285 7,700 -1,200 Descending FlightAware ADS-B
Sun 12:13:32 AM 49.9930 7.9020 213° Southwest 249 287 7,500 -720 Descending FlightAware ADS-B
Sun 12:13:47 AM 49.9750 7.8990 186° South 242 278 7,400 -400 Descending FlightAware ADS-B
Sun 12:14:02 AM 49.9600 7.9080 159° South 230 265 7,300 -600 Descending FlightAware ADS-B
Sun 12:14:27 AM 49.9380 7.9320 145° Southeast 236 272 7,000 -873 Descending FlightAware ADS-B
Sun 12:14:57 AM 49.9140 7.9640 139° Southeast 227 261 6,500 -800 Descending FlightAware ADS-B
Sun 12:15:12 AM 49.9080 7.9870 112° Southeast 212 244 6,400 -436 Descending FlightAware ADS-B
Sun 12:15:52 AM 49.9090 8.0420 88° East 184 212 6,100 -429 Descending FlightAware ADS-B
Sun 12:16:22 AM 49.9170 8.0780 71° East 177 204 5,900 -500 Descending FlightAware ADS-B
Sun 12:16:52 AM 49.9260 8.1120 68° East 177 204 5,600 -545 Descending FlightAware ADS-B
Sun 12:17:17 AM 49.9330 8.1420 70° East 178 205 5,400 -545 Descending FlightAware ADS-B
Sun 12:17:47 AM 49.9420 8.1790 69° East 173 199 5,100 -764 Descending FlightAware ADS-B
Sun 12:18:12 AM 49.9490 8.2080 69° East 178 205 4,700 -1,050 Descending FlightAware ADS-B
Sun 12:18:27 AM 49.9530 8.2270 72° East 179 206 4,400 -1,067 Descending FlightAware ADS-B
Sun 12:18:57 AM 49.9620 8.2630 69° East 179 206 3,900 -982 Descending FlightAware ADS-B
Sun 12:19:22 AM 49.9690 8.2930 70° East 182 209 3,500 -982 Descending FlightAware ADS-B
Sun 12:19:52 AM 49.9780 8.3290 69° East 177 204 3,000 -982 Descending FlightAware ADS-B
Sun 12:20:17 AM 49.9850 8.3590 70° East 168 193 2,600 -982 Descending FlightAware ADS-B
Sun 12:20:47 AM 49.9940 8.3930 68° East 163 188 2,100 -880 Descending FlightAware ADS-B
Sun 12:21:32 AM 50.0040 8.4360 70° East 145 167 1,500 -514 Descending FlightAware ADS-B
Sun 12:21:57 AM 50.0100 8.4600 69° East 145 167 1,500  Level FlightAware ADS-B
Sun 12:24:00 AM 50.0264 8.5431 111° Southeast  Level Estimated

Login

Don't have an account? Register now (free) for customized features, flight alerts, and more!